Terminal Aerodrome Forecast
Issued by NWS Corpus Christi, TX

Home | Current Version | Previous Version | Text Only | Print | Product List | Glossary On
Versions: 1 2 3 4 5 6 7 8 9 10 11 12 13 14 15 16 17
430
FTUS44 KCRP 191128
TAFVCT
TAF
KVCT 191128Z 1912/2012 02006KT 6SM -SHRA SCT015 OVC025
      TEMPO 1912/1915 3SM -SHRA BR OVC015
     FM191500 02008KT 5SM -SHRA OVC012
      TEMPO 1915/1919 3SM -SHRA BR OVC008
     FM191900 03006KT 4SM -SHRA BR OVC006
      TEMPO 1919/1923 2SM -SHRA BR OVC004
     FM192300 05005KT 4SM BR OVC004 PROB30 1923/2003 2SM -DZ BR
     FM200400 VRB03KT 2SM BR OVC003
     FM200800 VRB03KT 1/2SM FG VV002=

USA.gov is the U.S. government's official web portal to all federal, state and local government web resources and services.